Time;durP1;ratioP1;P1;durP2;ratioP2;P2;SDS_P1;SDS_P2;PMS_P1;PMS_P2;Temp;Humidity;BMP_temperature;BMP_pressure;BME280_temperature;BME280_humidity;BME280_pressure;Samples;Min_cycle;Max_cycle;Signal;HPM_P1;HPM_P2
2022/06/05 00:02:06;;;;;;;9.23;4.00;;;;;;;;;;5095194;28;20092;-73
2022/06/05 00:04:38;;;;;;;19.42;5.10;;;;;;;;;;5095016;28;20112;-73
2022/06/05 00:07:23;;;;;;;18.75;5.00;;;;;;;;;;5095021;28;20107;-73
2022/06/05 00:09:53;;;;;;;15.85;4.32;;;;;;;;;;5094824;28;20036;-73
2022/06/05 00:12:21;;;;;;;14.95;4.25;;;;;;;;;;5095003;28;20107;-72
2022/06/05 00:14:47;;;;;;;11.00;4.68;;;;;;;;;;5094752;28;20035;-72
2022/06/05 00:17:18;;;;;;;18.38;5.55;;;;;;;;;;5094955;28;20036;-72
2022/06/05 00:19:47;;;;;;;15.10;4.60;;;;;;;;;;5094754;28;20032;-72
2022/06/05 00:22:13;;;;;;;11.35;4.68;;;;;;;;;;5094650;28;20032;-73
2022/06/05 00:24:40;;;;;;;13.73;4.82;;;;;;;;;;5094521;28;20060;-77
2022/06/05 00:27:32;;;;;;;17.00;5.85;;;;;;;;;;5094553;28;20043;-72
2022/06/05 00:30:04;;;;;;;11.30;4.97;;;;;;;;;;5092190;28;20039;-77
2022/06/05 00:32:37;;;;;;;11.70;5.15;;;;;;;;;;5094607;28;20039;-72
2022/06/05 00:35:04;;;;;;;22.73;5.18;;;;;;;;;;5094063;28;20095;-74
2022/06/05 00:37:34;;;;;;;17.52;5.60;;;;;;;;;;5094173;28;20079;-72
2022/06/05 00:40:09;;;;;;;10.65;4.47;;;;;;;;;;5094251;28;20059;-71
2022/06/05 00:42:35;;;;;;;13.93;4.57;;;;;;;;;;5093993;28;20044;-76
2022/06/05 00:45:07;;;;;;;15.23;5.20;;;;;;;;;;5094318;28;20032;-76
2022/06/05 00:47:34;;;;;;;10.63;4.38;;;;;;;;;;5094019;28;20056;-71
2022/06/05 00:50:00;;;;;;;13.48;4.80;;;;;;;;;;5093764;28;20539;-72
2022/06/05 00:52:29;;;;;;;17.33;5.13;;;;;;;;;;5094051;28;20028;-71
2022/06/05 00:54:55;;;;;;;15.18;5.20;;;;;;;;;;5094303;28;20361;-72
2022/06/05 00:57:21;;;;;;;12.70;4.20;;;;;;;;;;5093934;28;20033;-72
2022/06/05 00:59:48;;;;;;;13.05;3.70;;;;;;;;;;5090782;28;20520;-72
2022/06/05 01:02:15;;;;;;;11.93;4.45;;;;;;;;;;5091052;28;20047;-72
2022/06/05 01:04:43;;;;;;;15.95;4.35;;;;;;;;;;5091927;28;20031;-75
2022/06/05 01:07:09;;;;;;;18.80;4.65;;;;;;;;;;5093721;28;20036;-72
2022/06/05 01:09:36;;;;;;;12.85;3.83;;;;;;;;;;5093819;28;20423;-75
2022/06/05 01:12:05;;;;;;;12.45;4.50;;;;;;;;;;5093694;28;20036;-72
2022/06/05 01:14:40;;;;;;;15.07;4.18;;;;;;;;;;5093730;28;20032;-72
2022/06/05 01:17:12;;;;;;;13.65;4.50;;;;;;;;;;5093732;28;20384;-72
2022/06/05 01:19:44;;;;;;;15.50;4.38;;;;;;;;;;5093175;28;20191;-75
2022/06/05 01:22:10;;;;;;;11.38;3.90;;;;;;;;;;5093079;28;20369;-73
2022/06/05 01:24:55;;;;;;;13.48;4.97;;;;;;;;;;5093583;28;20085;-76
2022/06/05 01:27:26;;;;;;;13.68;3.97;;;;;;;;;;5093549;28;20175;-77
2022/06/05 01:29:59;;;;;;;18.08;4.28;;;;;;;;;;5092882;28;20035;-77
2022/06/05 01:32:37;;;;;;;10.10;3.75;;;;;;;;;;5093452;28;20033;-76
2022/06/05 01:35:17;;;;;;;11.80;4.28;;;;;;;;;;5093217;28;20396;-77
2022/06/05 01:37:47;;;;;;;14.57;4.55;;;;;;;;;;5092937;28;20428;-72
2022/06/05 01:40:20;;;;;;;9.63;4.18;;;;;;;;;;5093169;28;20036;-74
2022/06/05 01:42:52;;;;;;;16.50;4.55;;;;;;;;;;5092754;28;20036;-76
2022/06/05 01:45:21;;;;;;;11.80;4.22;;;;;;;;;;5093174;28;20043;-73
2022/06/05 01:47:49;;;;;;;15.23;3.95;;;;;;;;;;5092360;28;20036;-73
2022/06/05 01:50:27;;;;;;;11.30;4.65;;;;;;;;;;5093239;28;20511;-73
2022/06/05 01:53:20;;;;;;;16.17;4.75;;;;;;;;;;5093482;28;20047;-75
2022/06/05 01:56:01;;;;;;;14.95;4.43;;;;;;;;;;5091003;28;20032;-72
2022/06/05 01:58:33;;;;;;;9.43;4.20;;;;;;;;;;5092971;28;20028;-76
2022/06/05 02:01:00;;;;;;;20.67;4.23;;;;;;;;;;5092800;28;20024;-72
2022/06/05 02:03:32;;;;;;;15.18;5.43;;;;;;;;;;5092891;28;20385;-75
2022/06/05 02:05:58;;;;;;;;;;;;;;;;;;5093553;28;20029;-71
2022/06/05 02:08:38;;;;;;;10.68;4.00;;;;;;;;;;5093177;28;19904;-71
2022/06/05 02:11:08;;;;;;;13.48;5.03;;;;;;;;;;5092863;28;20070;-71
2022/06/05 02:13:34;;;;;;;11.55;4.95;;;;;;;;;;5092944;28;20111;-72
2022/06/05 02:16:00;;;;;;;13.35;4.28;;;;;;;;;;5092745;28;20496;-72
2022/06/05 02:18:27;;;;;;;14.30;5.03;;;;;;;;;;5092729;28;20480;-74
2022/06/05 02:20:53;;;;;;;13.60;4.65;;;;;;;;;;5092567;28;20484;-72
2022/06/05 02:23:21;;;;;;;19.98;4.50;;;;;;;;;;5092820;28;20040;-72
2022/06/05 02:25:47;;;;;;;11.45;4.50;;;;;;;;;;5092820;28;20036;-71
2022/06/05 02:28:15;;;;;;;13.65;4.10;;;;;;;;;;5092324;28;20477;-72
2022/06/05 02:30:44;;;;;;;13.75;5.53;;;;;;;;;;5092508;28;20115;-72
2022/06/05 02:33:15;;;;;;;15.75;4.90;;;;;;;;;;5092477;28;20047;-72
2022/06/05 02:35:48;;;;;;;9.88;4.15;;;;;;;;;;5092523;28;20111;-72
2022/06/05 02:38:23;;;;;;;11.70;4.32;;;;;;;;;;5092279;28;20064;-72
2022/06/05 02:40:52;;;;;;;12.93;3.95;;;;;;;;;;5092702;28;20529;-71
2022/06/05 02:43:27;;;;;;;13.68;4.75;;;;;;;;;;5092600;28;20049;-76
2022/06/05 02:46:08;;;;;;;14.10;4.63;;;;;;;;;;5092513;28;20028;-72
2022/06/05 02:48:48;;;;;;;12.23;4.45;;;;;;;;;;5092521;28;20423;-72
2022/06/05 02:51:17;;;;;;;10.02;4.75;;;;;;;;;;5092431;28;20060;-72
2022/06/05 02:53:49;;;;;;;10.45;3.97;;;;;;;;;;5092757;28;20053;-72
2022/06/05 02:56:15;;;;;;;11.90;5.05;;;;;;;;;;5092409;28;20484;-72
2022/06/05 02:58:41;;;;;;;15.30;4.13;;;;;;;;;;5094478;28;20078;-72
2022/06/05 03:03:52;;;;;;;10.40;4.35;;;;;;;;;;5096369;28;20046;-75
2022/06/05 03:06:18;;;;;;;11.02;4.63;;;;;;;;;;5096314;28;20499;-72
2022/06/05 03:08:44;;;;;;;14.50;4.68;;;;;;;;;;5095828;28;20032;-76
2022/06/05 03:11:10;;;;;;;14.95;3.97;;;;;;;;;;5095751;28;20452;-72
2022/06/05 03:13:36;;;;;;;12.98;4.50;;;;;;;;;;5095957;28;20072;-72
2022/06/05 03:16:02;;;;;;;17.10;4.63;;;;;;;;;;5095981;28;20396;-76
2022/06/05 03:18:28;;;;;;;11.88;3.88;;;;;;;;;;5096191;28;20434;-72
2022/06/05 03:20:57;;;;;;;10.68;4.07;;;;;;;;;;5095756;28;20121;-71
2022/06/05 03:23:25;;;;;;;9.50;4.10;;;;;;;;;;5094425;28;20392;-76
2022/06/05 03:25:51;;;;;;;13.05;4.30;;;;;;;;;;5095673;28;20032;-72
2022/06/05 03:28:17;;;;;;;13.20;4.25;;;;;;;;;;5095586;28;20036;-75
2022/06/05 03:30:43;;;;;;;13.82;4.47;;;;;;;;;;5095821;28;20028;-72
2022/06/05 03:33:10;;;;;;;11.57;5.32;;;;;;;;;;5095577;28;20039;-72
2022/06/05 03:35:37;;;;;;;11.20;4.70;;;;;;;;;;5095744;28;20036;-72
2022/06/05 03:38:04;;;;;;;10.32;4.50;;;;;;;;;;5095744;28;20105;-72
2022/06/05 03:40:30;;;;;;;12.27;4.90;;;;;;;;;;5095609;28;20062;-75
2022/06/05 03:42:57;;;;;;;19.23;5.35;;;;;;;;;;5095375;28;20075;-76
2022/06/05 03:45:23;;;;;;;12.52;5.35;;;;;;;;;;5095048;28;20036;-72
2022/06/05 03:47:49;;;;;;;11.32;4.68;;;;;;;;;;5095622;28;20032;-72
2022/06/05 03:50:16;;;;;;;11.68;5.90;;;;;;;;;;5095396;28;20028;-72
2022/06/05 03:52:42;;;;;;;17.02;6.25;;;;;;;;;;5095442;28;20062;-72
2022/06/05 03:55:09;;;;;;;13.55;6.28;;;;;;;;;;5095006;28;20036;-72
2022/06/05 03:57:35;;;;;;;15.75;5.20;;;;;;;;;;5094943;28;20111;-72
2022/06/05 04:00:01;;;;;;;11.55;5.07;;;;;;;;;;5095159;28;20072;-72
2022/06/05 04:02:27;;;;;;;10.50;4.82;;;;;;;;;;5095120;28;20515;-72
2022/06/05 04:04:54;;;;;;;19.63;5.20;;;;;;;;;;5095043;28;20168;-74
2022/06/05 04:07:20;;;;;;;16.35;4.95;;;;;;;;;;5095057;28;20035;-75
2022/06/05 04:09:46;;;;;;;11.40;4.28;;;;;;;;;;5093989;28;20043;-72
2022/06/05 04:12:12;;;;;;;12.55;4.25;;;;;;;;;;5095004;28;20485;-72
2022/06/05 04:14:38;;;;;;;13.35;4.35;;;;;;;;;;5094996;28;20039;-72
2022/06/05 04:17:04;;;;;;;15.25;4.60;;;;;;;;;;5094918;28;20043;-71
2022/06/05 04:19:30;;;;;;;17.80;4.72;;;;;;;;;;5094692;28;20430;-72
2022/06/05 04:21:56;;;;;;;12.30;4.55;;;;;;;;;;5094736;28;20476;-72
2022/06/05 04:24:22;;;;;;;12.07;4.60;;;;;;;;;;5094603;28;20048;-72
2022/06/05 04:26:48;;;;;;;14.07;4.47;;;;;;;;;;5094612;28;20085;-71
2022/06/05 04:29:14;;;;;;;10.60;4.25;;;;;;;;;;5094466;28;20032;-72
2022/06/05 04:31:45;;;;;;;13.80;4.68;;;;;;;;;;5094537;28;20032;-72
2022/06/05 04:34:13;;;;;;;14.43;4.63;;;;;;;;;;5094276;28;20469;-72
2022/06/05 04:36:39;;;;;;;10.13;5.07;;;;;;;;;;5094036;28;20040;-71
2022/06/05 04:39:05;;;;;;;14.00;4.72;;;;;;;;;;5094615;28;20044;-74
2022/06/05 04:41:31;;;;;;;14.50;5.78;;;;;;;;;;5094329;28;20039;-72
2022/06/05 04:43:57;;;;;;;17.67;6.65;;;;;;;;;;5094409;28;20048;-72
2022/06/05 04:46:24;;;;;;;12.77;5.72;;;;;;;;;;5094327;28;20035;-72
2022/06/05 04:48:50;;;;;;;14.23;5.13;;;;;;;;;;5094301;28;20042;-75
2022/06/05 04:51:18;;;;;;;14.95;5.07;;;;;;;;;;5094077;28;20035;-72
2022/06/05 04:53:44;;;;;;;16.10;5.32;;;;;;;;;;5094170;28;20119;-72
2022/06/05 04:56:12;;;;;;;15.55;6.78;;;;;;;;;;5094426;28;20085;-73
2022/06/05 04:58:38;;;;;;;13.57;6.80;;;;;;;;;;5093943;28;20036;-74
2022/06/05 05:01:15;;;;;;;32.53;11.43;;;;;;;;;;5094174;28;20035;-73
2022/06/05 05:03:41;;;;;;;17.58;7.22;;;;;;;;;;5093791;28;20047;-79
2022/06/05 05:06:07;;;;;;;14.13;6.50;;;;;;;;;;5093976;28;20046;-74
2022/06/05 05:08:34;;;;;;;16.95;6.65;;;;;;;;;;5093696;28;20048;-77
2022/06/05 05:11:00;;;;;;;10.77;6.13;;;;;;;;;;5094004;28;20032;-70
2022/06/05 05:13:26;;;;;;;14.27;6.97;;;;;;;;;;5093780;28;20040;-70
2022/06/05 05:15:53;;;;;;;16.50;6.07;;;;;;;;;;5093745;28;20028;-71
2022/06/05 05:18:20;;;;;;;16.38;5.43;;;;;;;;;;5093403;28;20174;-71
2022/06/05 05:20:46;;;;;;;11.43;4.97;;;;;;;;;;5093435;28;20028;-71
2022/06/05 05:23:12;;;;;;;14.63;4.47;;;;;;;;;;5093800;28;20036;-74
2022/06/05 05:25:39;;;;;;;15.20;4.82;;;;;;;;;;5093686;28;20035;-74
2022/06/05 05:28:08;;;;;;;10.88;4.95;;;;;;;;;;5093513;28;20047;-70
2022/06/05 05:30:35;;;;;;;15.38;5.00;;;;;;;;;;5093280;28;20097;-70
2022/06/05 05:33:01;;;;;;;11.68;4.93;;;;;;;;;;5093577;28;20545;-70
2022/06/05 05:35:27;;;;;;;17.25;5.40;;;;;;;;;;5093514;28;20111;-69
2022/06/05 05:37:54;;;;;;;24.38;5.53;;;;;;;;;;5093765;28;20079;-68
2022/06/05 05:43:04;;;;;;;9.77;4.60;;;;;;;;;;5093261;28;20097;-69
2022/06/05 05:45:30;;;;;;;18.10;5.38;;;;;;;;;;5092984;28;20032;-68
2022/06/05 05:47:56;;;;;;;13.82;6.55;;;;;;;;;;5092938;28;20032;-69
2022/06/05 05:50:22;;;;;;;16.95;6.15;;;;;;;;;;5093315;28;20039;-73
2022/06/05 05:52:48;;;;;;;19.95;5.68;;;;;;;;;;5092998;28;20086;-69
2022/06/05 05:55:15;;;;;;;14.88;5.30;;;;;;;;;;5092792;28;20040;-70
2022/06/05 05:57:42;;;;;;;14.13;6.00;;;;;;;;;;5091500;28;20473;-69
2022/06/05 06:00:09;;;;;;;19.05;6.07;;;;;;;;;;5087692;28;20043;-74
2022/06/05 06:02:36;;;;;;;10.43;5.78;;;;;;;;;;5089833;28;20036;-70
2022/06/05 06:05:02;;;;;;;17.85;6.43;;;;;;;;;;5090378;28;20056;-73
2022/06/05 06:07:28;;;;;;;13.48;7.47;;;;;;;;;;5091916;28;20036;-73
2022/06/05 06:09:55;;;;;;;17.50;7.93;;;;;;;;;;5092117;28;20036;-70
2022/06/05 06:12:21;;;;;;;15.88;7.13;;;;;;;;;;5091540;28;20515;-69
2022/06/05 06:14:47;;;;;;;12.95;7.07;;;;;;;;;;5088155;28;20173;-70
2022/06/05 06:17:13;;;;;;;15.80;6.28;;;;;;;;;;5088031;28;20541;-75
2022/06/05 06:19:39;;;;;;;12.02;6.43;;;;;;;;;;5089835;28;20036;-68
2022/06/05 06:22:06;;;;;;;11.10;5.75;;;;;;;;;;5090880;28;20028;-67
2022/06/05 06:24:32;;;;;;;18.40;5.97;;;;;;;;;;5090856;28;20036;-67
2022/06/05 06:26:58;;;;;;;16.02;6.10;;;;;;;;;;5091388;28;20391;-66
2022/06/05 06:29:24;;;;;;;13.73;6.70;;;;;;;;;;5092030;28;20472;-66
2022/06/05 06:31:50;;;;;;;10.73;5.80;;;;;;;;;;5092088;28;20043;-65
2022/06/05 06:34:16;;;;;;;13.50;6.10;;;;;;;;;;5095478;28;20118;-65
2022/06/05 06:36:42;;;;;;;16.15;7.07;;;;;;;;;;5096343;28;20062;-65
2022/06/05 06:39:08;;;;;;;20.70;6.68;;;;;;;;;;5096628;28;20059;-65
2022/06/05 06:41:34;;;;;;;17.70;6.93;;;;;;;;;;5097043;28;20381;-66
2022/06/05 06:44:03;;;;;;;16.60;7.03;;;;;;;;;;5096271;28;20040;-66
2022/06/05 06:46:29;;;;;;;18.67;7.90;;;;;;;;;;5096232;28;20063;-66
2022/06/05 06:48:55;;;;;;;17.55;9.02;;;;;;;;;;5096026;28;20028;-66
2022/06/05 06:51:22;;;;;;;17.83;8.35;;;;;;;;;;5094342;28;20085;-65
2022/06/05 06:53:48;;;;;;;21.02;7.75;;;;;;;;;;5096000;28;20392;-66
2022/06/05 06:56:19;;;;;;;20.45;7.60;;;;;;;;;;5096344;28;20465;-66
2022/06/05 06:58:46;;;;;;;16.50;8.15;;;;;;;;;;5096448;28;20511;-65
2022/06/05 07:01:12;;;;;;;16.15;8.07;;;;;;;;;;5096314;28;20036;-66
2022/06/05 07:03:38;;;;;;;19.15;8.23;;;;;;;;;;5095757;28;20040;-66
2022/06/05 07:06:06;;;;;;;15.45;7.60;;;;;;;;;;5095969;28;20032;-66
2022/06/05 07:08:33;;;;;;;14.50;7.35;;;;;;;;;;5095554;28;20085;-66
2022/06/05 07:10:59;;;;;;;15.57;8.35;;;;;;;;;;5095649;28;20480;-66
2022/06/05 07:13:26;;;;;;;16.85;7.93;;;;;;;;;;5095768;28;20127;-66
2022/06/05 07:15:52;;;;;;;15.75;8.07;;;;;;;;;;5096256;28;20081;-66
2022/06/05 07:18:19;;;;;;;12.35;7.57;;;;;;;;;;5096162;28;20427;-66
2022/06/05 07:20:45;;;;;;;17.80;7.63;;;;;;;;;;5096063;28;20034;-66
2022/06/05 07:23:12;;;;;;;11.85;7.80;;;;;;;;;;5095822;28;20483;-66
2022/06/05 07:25:44;;;;;;;14.73;8.10;;;;;;;;;;5095854;28;20032;-66
2022/06/05 07:28:10;;;;;;;14.95;8.43;;;;;;;;;;5095756;28;20126;-66
2022/06/05 07:30:36;;;;;;;20.38;9.02;;;;;;;;;;5095506;28;20063;-66
2022/06/05 07:33:02;;;;;;;20.52;8.45;;;;;;;;;;5095747;28;20051;-66
2022/06/05 07:35:28;;;;;;;14.05;7.68;;;;;;;;;;5095820;28;20400;-66
2022/06/05 07:37:54;;;;;;;18.98;8.73;;;;;;;;;;5095491;28;20390;-70
2022/06/05 07:40:20;;;;;;;15.20;7.88;;;;;;;;;;5095304;28;20056;-66
2022/06/05 07:42:46;;;;;;;18.80;8.07;;;;;;;;;;5095366;28;20460;-66
2022/06/05 07:45:14;;;;;;;20.00;9.30;;;;;;;;;;5093760;28;20035;-66
2022/06/05 07:47:44;;;;;;;18.60;7.82;;;;;;;;;;5095474;28;20044;-66
2022/06/05 07:50:11;;;;;;;23.63;8.55;;;;;;;;;;5095085;28;20473;-65
2022/06/05 07:55:21;;;;;;;18.23;8.07;;;;;;;;;;5095345;28;20430;-66
2022/06/05 07:57:48;;;;;;;13.07;7.65;;;;;;;;;;5095185;28;20081;-66
2022/06/05 08:00:14;;;;;;;19.70;8.98;;;;;;;;;;5094878;28;20035;-66
2022/06/05 08:02:40;;;;;;;16.30;8.95;;;;;;;;;;5095026;28;20135;-66
2022/06/05 08:05:07;;;;;;;14.63;7.88;;;;;;;;;;5094892;28;20036;-66
2022/06/05 08:07:33;;;;;;;18.63;8.57;;;;;;;;;;5094901;28;20036;-66
2022/06/05 08:10:00;;;;;;;19.02;7.63;;;;;;;;;;5095310;28;20056;-66
2022/06/05 08:12:28;;;;;;;16.27;8.38;;;;;;;;;;5094849;28;20036;-66
2022/06/05 08:14:54;;;;;;;20.17;8.20;;;;;;;;;;5095218;28;20032;-66
2022/06/05 08:17:21;;;;;;;13.40;7.55;;;;;;;;;;5095054;28;20040;-66
2022/06/05 08:19:48;;;;;;;20.13;7.85;;;;;;;;;;5094653;28;20063;-66
2022/06/05 08:22:15;;;;;;;14.32;8.13;;;;;;;;;;5094705;28;20131;-66
2022/06/05 08:24:41;;;;;;;12.23;7.32;;;;;;;;;;5094353;28;20072;-66
2022/06/05 08:27:08;;;;;;;20.25;7.32;;;;;;;;;;5094620;28;20166;-67
2022/06/05 08:29:34;;;;;;;13.45;7.43;;;;;;;;;;5094726;28;20032;-66
2022/06/05 08:32:00;;;;;;;18.90;7.60;;;;;;;;;;5094926;28;20038;-67
2022/06/05 08:34:26;;;;;;;14.95;7.32;;;;;;;;;;5094497;28;20037;-66
2022/06/05 08:41:26;;;;;;;17.33;8.52;;;;;;;;;;5094372;28;20109;-66
2022/06/05 08:42:32;;;;;;;16.83;9.48;;;;;;;;;;5094490;28;20035;-66
2022/06/05 08:44:59;;;;;;;15.63;8.40;;;;;;;;;;5094454;28;20036;-66
2022/06/05 08:47:27;;;;;;;13.98;8.75;;;;;;;;;;5094383;28;20042;-66
2022/06/05 08:49:54;;;;;;;17.08;8.38;;;;;;;;;;5094485;28;20040;-66
2022/06/05 08:52:27;;;;;;;14.52;7.95;;;;;;;;;;5094431;28;20027;-66
2022/06/05 08:54:59;;;;;;;19.75;9.20;;;;;;;;;;5094164;28;20036;-66
2022/06/05 08:57:25;;;;;;;12.93;7.93;;;;;;;;;;5093700;28;20102;-67
2022/06/05 08:59:57;;;;;;;13.32;7.00;;;;;;;;;;5094383;28;20052;-66
2022/06/05 09:02:26;;;;;;;16.15;8.25;;;;;;;;;;5094104;28;20028;-66
2022/06/05 09:04:57;;;;;;;19.48;8.55;;;;;;;;;;5094234;28;20040;-66
2022/06/05 09:07:26;;;;;;;19.30;7.70;;;;;;;;;;5093965;28;20384;-66
2022/06/05 09:09:58;;;;;;;13.40;7.70;;;;;;;;;;5093728;28;20067;-66
2022/06/05 09:12:28;;;;;;;22.00;8.35;;;;;;;;;;5093726;28;20028;-66
2022/06/05 09:15:00;;;;;;;14.63;7.97;;;;;;;;;;5093849;28;20036;-66
2022/06/05 09:17:26;;;;;;;18.08;8.38;;;;;;;;;;5093659;28;20058;-66
2022/06/05 09:19:53;;;;;;;23.42;7.63;;;;;;;;;;5090583;28;20114;-67
2022/06/05 09:22:25;;;;;;;16.38;8.73;;;;;;;;;;5090838;28;20484;-66
2022/06/05 09:25:05;;;;;;;17.25;8.60;;;;;;;;;;5093566;28;20167;-66
2022/06/05 09:27:44;;;;;;;16.73;7.03;;;;;;;;;;5093719;28;20480;-66
2022/06/05 09:30:16;;;;;;;15.70;7.93;;;;;;;;;;5093774;28;20032;-66
2022/06/05 09:32:54;;;;;;;17.27;8.68;;;;;;;;;;5093404;28;20028;-66
2022/06/05 09:35:29;;;;;;;20.92;8.02;;;;;;;;;;5093197;28;20488;-66
2022/06/05 09:38:02;;;;;;;17.52;7.47;;;;;;;;;;5093128;28;20519;-66
2022/06/05 09:40:38;;;;;;;17.58;7.40;;;;;;;;;;5093497;28;20036;-66
2022/06/05 09:43:04;;;;;;;15.93;7.40;;;;;;;;;;5091825;28;20055;-66
2022/06/05 09:45:33;;;;;;;24.05;7.13;;;;;;;;;;5090489;28;20035;-66
2022/06/05 09:48:12;;;;;;;17.15;7.28;;;;;;;;;;5090360;28;20039;-66
2022/06/05 09:50:38;;;;;;;13.98;7.32;;;;;;;;;;5092106;28;20064;-66
2022/06/05 09:53:04;;;;;;;21.10;6.80;;;;;;;;;;5093166;28;20032;-66
2022/06/05 09:55:49;;;;;;;19.55;7.40;;;;;;;;;;5093127;28;20464;-66
2022/06/05 09:58:31;;;;;;;11.95;6.78;;;;;;;;;;5092967;28;20062;-66
2022/06/05 10:01:01;;;;;;;16.33;6.78;;;;;;;;;;5092971;28;20044;-66
2022/06/05 10:03:29;;;;;;;22.00;7.88;;;;;;;;;;5093173;28;20040;-66
2022/06/05 10:06:14;;;;;;;20.17;6.97;;;;;;;;;;5093058;28;20032;-66
2022/06/05 10:08:43;;;;;;;23.42;6.53;;;;;;;;;;5092321;28;20036;-66
2022/06/05 10:11:20;;;;;;;13.57;6.45;;;;;;;;;;5092929;28;20495;-66
2022/06/05 10:13:50;;;;;;;15.73;7.95;;;;;;;;;;5092819;28;20039;-66
2022/06/05 10:16:39;;;;;;;16.75;7.10;;;;;;;;;;5092908;28;20378;-66
2022/06/05 10:19:05;;;;;;;14.13;6.85;;;;;;;;;;5092636;28;20040;-66
2022/06/05 10:21:40;;;;;;;18.48;7.28;;;;;;;;;;5092820;28;20032;-67
2022/06/05 10:24:24;;;;;;;24.48;7.60;;;;;;;;;;5092808;28;20040;-67
2022/06/05 10:26:51;;;;;;;14.05;6.88;;;;;;;;;;5092663;28;20059;-66
2022/06/05 10:29:23;;;;;;;21.10;7.15;;;;;;;;;;5092447;28;20039;-66
2022/06/05 10:32:01;;;;;;;17.40;6.97;;;;;;;;;;5092889;28;20469;-66
2022/06/05 10:34:46;;;;;;;22.17;6.85;;;;;;;;;;5093075;28;20046;-67
2022/06/05 10:37:12;;;;;;;19.23;7.55;;;;;;;;;;5093004;28;20399;-66
2022/06/05 10:39:53;;;;;;;17.48;6.22;;;;;;;;;;5092644;28;20114;-66
2022/06/05 10:42:29;;;;;;;15.68;6.57;;;;;;;;;;5092894;28;20086;-66
2022/06/05 10:45:02;;;;;;;14.45;6.00;;;;;;;;;;5093019;28;20404;-66
2022/06/05 10:47:32;;;;;;;15.55;6.35;;;;;;;;;;5092768;28;20107;-66
2022/06/05 10:49:58;;;;;;;16.57;6.33;;;;;;;;;;5092304;28;20051;-67
2022/06/05 10:52:43;;;;;;;14.27;5.70;;;;;;;;;;5092885;28;20035;-66
2022/06/05 10:55:12;;;;;;;21.48;6.85;;;;;;;;;;5092610;28;20371;-66
2022/06/05 10:57:40;;;;;;;21.85;6.82;;;;;;;;;;5091611;28;20107;-68
2022/06/05 11:00:17;;;;;;;18.58;6.40;;;;;;;;;;5088654;28;20044;-67
2022/06/05 11:03:02;;;;;;;21.67;5.63;;;;;;;;;;5090131;28;20118;-66
2022/06/05 11:05:39;;;;;;;16.58;5.53;;;;;;;;;;5092161;28;20036;-66
2022/06/05 11:08:08;;;;;;;19.52;6.60;;;;;;;;;;5092486;28;20369;-66
2022/06/05 11:14:03;;;;;;;19.48;5.50;;;;;;;;;;5089629;28;20039;-67
2022/06/05 11:16:40;;;;;;;21.45;5.80;;;;;;;;;;5091637;28;20028;-67
2022/06/05 11:19:19;;;;;;;17.92;4.72;;;;;;;;;;5093047;28;20043;-66
2022/06/05 11:21:48;;;;;;;18.48;5.10;;;;;;;;;;5093080;28;20032;-66
2022/06/05 11:24:25;;;;;;;20.58;5.03;;;;;;;;;;5092802;28;20054;-66
2022/06/05 11:26:59;;;;;;;25.40;4.97;;;;;;;;;;5094204;28;20032;-66
2022/06/05 11:29:43;;;;;;;18.33;4.40;;;;;;;;;;5095863;28;20039;-66
2022/06/05 11:32:10;;;;;;;20.77;5.35;;;;;;;;;;5095696;28;20039;-66
2022/06/05 11:34:36;;;;;;;23.52;4.95;;;;;;;;;;5095796;28;20530;-66
2022/06/05 11:37:17;;;;;;;25.58;6.18;;;;;;;;;;5096036;28;20036;-66
2022/06/05 11:39:49;;;;;;;15.38;4.88;;;;;;;;;;5095693;28;20542;-67
2022/06/05 11:42:30;;;;;;;21.08;5.22;;;;;;;;;;5095480;28;20542;-66
2022/06/05 11:44:59;;;;;;;29.30;6.05;;;;;;;;;;5095612;28;20040;-66
2022/06/05 11:47:43;;;;;;;26.10;5.07;;;;;;;;;;5095752;28;20525;-66
2022/06/05 11:50:15;;;;;;;20.02;5.03;;;;;;;;;;5095501;28;20377;-66
2022/06/05 11:52:45;;;;;;;18.15;5.28;;;;;;;;;;5095256;28;20054;-70
2022/06/05 11:55:11;;;;;;;28.83;5.55;;;;;;;;;;5094596;28;20035;-65
2022/06/05 11:57:40;;;;;;;21.55;5.63;;;;;;;;;;5095621;28;20123;-66
2022/06/05 12:00:12;;;;;;;19.58;5.32;;;;;;;;;;5095084;28;20032;-67
2022/06/05 12:02:38;;;;;;;21.77;5.25;;;;;;;;;;5095001;28;20028;-68
2022/06/05 12:05:09;;;;;;;21.48;5.30;;;;;;;;;;5095158;28;20118;-67
2022/06/05 12:07:35;;;;;;;25.85;5.15;;;;;;;;;;5095241;28;20028;-66
2022/06/05 12:10:06;;;;;;;20.17;5.50;;;;;;;;;;5094680;28;20039;-67
2022/06/05 12:12:44;;;;;;;19.15;5.28;;;;;;;;;;5094841;28;20107;-66
2022/06/05 12:15:29;;;;;;;23.80;5.90;;;;;;;;;;5094861;28;20050;-66
2022/06/05 12:18:00;;;;;;;21.55;5.88;;;;;;;;;;5094566;28;20134;-66
2022/06/05 12:20:29;;;;;;;17.45;4.95;;;;;;;;;;5094646;28;20028;-66
2022/06/05 12:23:13;;;;;;;20.50;5.65;;;;;;;;;;5094635;28;20389;-66
2022/06/05 12:25:45;;;;;;;23.58;5.50;;;;;;;;;;5094355;28;20040;-66
2022/06/05 12:28:15;;;;;;;15.48;5.00;;;;;;;;;;5093931;28;20412;-66
2022/06/05 12:30:42;;;;;;;15.27;5.25;;;;;;;;;;5093446;28;20028;-65
2022/06/05 12:33:12;;;;;;;17.75;5.45;;;;;;;;;;5093701;28;20089;-66
2022/06/05 12:35:39;;;;;;;21.00;5.82;;;;;;;;;;5093505;28;20127;-66
2022/06/05 12:38:11;;;;;;;17.35;5.13;;;;;;;;;;5094355;28;20055;-66
2022/06/05 12:40:42;;;;;;;21.95;5.60;;;;;;;;;;5094270;28;20040;-66
2022/06/05 12:43:22;;;;;;;17.00;5.50;;;;;;;;;;5094221;28;20143;-66
2022/06/05 12:45:48;;;;;;;18.95;5.18;;;;;;;;;;5093464;28;20058;-66
2022/06/05 12:48:21;;;;;;;26.60;4.95;;;;;;;;;;5093010;28;20101;-66
2022/06/05 12:51:07;;;;;;;24.63;5.40;;;;;;;;;;5093991;28;20041;-71
2022/06/05 12:53:36;;;;;;;21.77;5.70;;;;;;;;;;5094234;28;20134;-66
2022/06/05 12:56:08;;;;;;;18.48;4.97;;;;;;;;;;5094010;28;20377;-66
2022/06/05 12:58:55;;;;;;;22.75;4.97;;;;;;;;;;5092979;28;20060;-66
2022/06/05 13:01:25;;;;;;;19.98;5.13;;;;;;;;;;5082766;28;20492;-66
2022/06/05 13:03:55;;;;;;;23.45;5.63;;;;;;;;;;5092960;28;20044;-66
2022/06/05 13:06:25;;;;;;;24.27;5.00;;;;;;;;;;5093241;28;20490;-66
2022/06/05 13:08:52;;;;;;;30.80;5.25;;;;;;;;;;5091834;28;20091;-66
2022/06/05 13:11:31;;;;;;;29.15;5.10;;;;;;;;;;5091988;28;20104;-66
2022/06/05 13:13:58;;;;;;;22.85;5.07;;;;;;;;;;5093531;28;20036;-66
2022/06/05 13:16:49;;;;;;;32.22;5.78;;;;;;;;;;5093840;28;20085;-66
2022/06/05 13:19:16;;;;;;;25.48;5.18;;;;;;;;;;5092458;28;20036;-66
2022/06/05 13:21:52;;;;;;;22.05;4.97;;;;;;;;;;5092623;28;20362;-67
2022/06/05 13:24:24;;;;;;;16.77;4.70;;;;;;;;;;5093396;28;20073;-67
2022/06/05 13:27:13;;;;;;;20.20;4.88;;;;;;;;;;5093020;28;20122;-66
2022/06/05 13:29:54;;;;;;;16.17;4.78;;;;;;;;;;5055632;28;20036;-67
2022/06/05 13:32:24;;;;;;;21.20;5.60;;;;;;;;;;5093535;28;20033;-66
2022/06/05 13:34:56;;;;;;;22.10;5.72;;;;;;;;;;5093011;28;20055;-67
2022/06/05 13:37:22;;;;;;;18.40;4.93;;;;;;;;;;5093436;28;20417;-66
2022/06/05 13:39:54;;;;;;;14.68;4.15;;;;;;;;;;5093352;28;20028;-67
2022/06/05 13:42:22;;;;;;;26.48;5.03;;;;;;;;;;5092792;28;20043;-68
2022/06/05 13:44:55;;;;;;;18.00;5.15;;;;;;;;;;5093109;28;20055;-67
2022/06/05 13:47:21;;;;;;;16.77;4.13;;;;;;;;;;5093318;28;20040;-70
2022/06/05 13:50:06;;;;;;;21.25;4.75;;;;;;;;;;5093142;28;20031;-66
2022/06/05 13:52:40;;;;;;;12.88;4.35;;;;;;;;;;5093124;28;20032;-67
2022/06/05 13:55:06;;;;;;;20.65;5.55;;;;;;;;;;5093144;28;20032;-67
2022/06/05 13:57:53;;;;;;;14.40;4.68;;;;;;;;;;5092926;28;20480;-66
2022/06/05 14:00:19;;;;;;;19.70;5.05;;;;;;;;;;5092974;28;20024;-66
2022/06/05 14:02:46;;;;;;;16.15;5.13;;;;;;;;;;5090462;28;20143;-67
2022/06/05 14:05:15;;;;;;;19.25;5.30;;;;;;;;;;5089403;28;20055;-67
2022/06/05 14:07:41;;;;;;;19.73;4.38;;;;;;;;;;5089716;28;20032;-67
2022/06/05 14:10:26;;;;;;;11.45;4.00;;;;;;;;;;5090129;28;20036;-67
2022/06/05 14:13:07;;;;;;;22.92;5.18;;;;;;;;;;5090183;28;20036;-67
2022/06/05 14:15:52;;;;;;;17.20;4.43;;;;;;;;;;5092496;28;20064;-66
2022/06/05 14:18:40;;;;;;;15.23;5.30;;;;;;;;;;5093151;28;20403;-67
2022/06/05 14:21:07;;;;;;;17.73;4.30;;;;;;;;;;5080046;28;20039;-67
2022/06/05 14:23:34;;;;;;;11.32;3.97;;;;;;;;;;5091822;28;20048;-67
2022/06/05 14:26:02;;;;;;;20.50;3.90;;;;;;;;;;5086914;28;20067;-68
2022/06/05 14:28:38;;;;;;;19.50;4.05;;;;;;;;;;5090127;28;20040;-68
2022/06/05 14:31:12;;;;;;;16.88;3.65;;;;;;;;;;5092492;28;20040;-67
2022/06/05 14:33:41;;;;;;;17.00;4.18;;;;;;;;;;5092659;28;20032;-67
2022/06/05 14:36:07;;;;;;;11.10;3.67;;;;;;;;;;5091312;28;20131;-67
2022/06/05 14:39:02;;;;;;;14.13;3.65;;;;;;;;;;5090700;28;20109;-67
2022/06/05 14:41:32;;;;;;;20.70;3.92;;;;;;;;;;5077161;28;20036;-67
2022/06/05 14:44:02;;;;;;;15.27;3.92;;;;;;;;;;5090775;28;20040;-67
2022/06/05 14:46:38;;;;;;;15.52;3.65;;;;;;;;;;5091060;28;20063;-67
2022/06/05 14:49:14;;;;;;;14.32;4.30;;;;;;;;;;5087277;28;20040;-66
2022/06/05 14:51:51;;;;;;;21.33;4.38;;;;;;;;;;5087632;28;20492;-67
2022/06/05 14:57:51;;;;;;;17.30;4.10;;;;;;;;;;5088201;28;20441;-67
2022/06/05 15:00:00;;;;;;;22.98;4.78;;;;;;;;;;5094809;28;20094;-66
2022/06/05 15:02:30;;;;;;;22.90;3.75;;;;;;;;;;5096207;28;20032;-66
2022/06/05 15:05:18;;;;;;;22.60;4.03;;;;;;;;;;5095262;28;20040;-67
2022/06/05 15:07:47;;;;;;;21.23;4.75;;;;;;;;;;5096062;28;20081;-67